createdAt,value
2023-02-23T00:04:47.978Z,14.60
2023-02-23T00:09:50.727Z,14.68
2023-02-23T00:14:52.219Z,18.63
2023-02-23T00:19:54.617Z,17.92
2023-02-23T00:24:57.403Z,15.95
2023-02-23T00:29:58.811Z,16.38
2023-02-23T00:35:00.251Z,17.52
2023-02-23T00:40:03.849Z,14.95
2023-02-23T00:50:14.903Z,16.13
2023-02-23T00:55:16.439Z,16.23
2023-02-23T01:00:20.293Z,15.82
2023-02-23T01:05:22.596Z,16.08
2023-02-23T01:10:24.334Z,14.38
2023-02-23T01:15:27.539Z,14.75
2023-02-23T01:20:29.014Z,14.57
2023-02-23T01:25:30.562Z,13.93
2023-02-23T01:30:35.129Z,15.02
2023-02-23T01:35:36.747Z,15.02
2023-02-23T01:40:39.205Z,14.27
2023-02-23T01:45:45.910Z,12.63
2023-02-23T01:50:50.392Z,12.15
2023-02-23T01:55:55.559Z,13.65
2023-02-23T02:01:02.432Z,13.07
2023-02-23T02:06:05.492Z,13.35
2023-02-23T02:11:25.685Z,14.70
2023-02-23T02:16:50.365Z,15.13
2023-02-23T02:22:15.981Z,15.30
2023-02-23T02:28:08.950Z,15.82
2023-02-23T02:33:26.566Z,19.70
2023-02-23T02:38:30.932Z,18.85
2023-02-23T02:43:35.642Z,19.70
2023-02-23T02:49:01.503Z,17.55
2023-02-23T02:54:35.136Z,20.33
2023-02-23T03:00:04.629Z,18.52
2023-02-23T03:05:36.729Z,21.30
2023-02-23T03:11:17.024Z,25.55
2023-02-23T03:16:47.315Z,29.40
2023-02-23T03:22:07.512Z,23.42
2023-02-23T03:27:42.111Z,21.42
2023-02-23T03:33:16.178Z,18.52
2023-02-23T03:38:45.459Z,21.15
2023-02-23T03:44:13.466Z,21.38
2023-02-23T03:49:37.389Z,21.42
2023-02-23T03:55:02.447Z,24.27
2023-02-23T04:00:31.523Z,20.30
2023-02-23T04:05:55.774Z,21.30
2023-02-23T04:11:27.873Z,18.73
2023-02-23T04:16:31.850Z,19.17
2023-02-23T04:21:33.423Z,19.88
2023-02-23T04:26:34.922Z,14.65
2023-02-23T04:31:36.413Z,15.85
2023-02-23T04:36:38.062Z,15.32
2023-02-23T04:41:39.452Z,14.63
2023-02-23T04:46:40.867Z,18.10
2023-02-23T04:51:42.277Z,15.93
2023-02-23T04:56:43.666Z,22.50
2023-02-23T05:01:45.151Z,20.25
2023-02-23T05:06:46.599Z,24.08
2023-02-23T05:11:48.037Z,21.90
2023-02-23T05:16:49.719Z,21.95
2023-02-23T05:21:51.250Z,19.98
2023-02-23T05:26:53.757Z,23.08
2023-02-23T05:31:55.244Z,26.67
2023-02-23T05:36:56.831Z,20.55
2023-02-23T05:41:58.232Z,24.00
2023-02-23T05:46:59.889Z,23.85
2023-02-23T05:52:01.319Z,21.55
2023-02-23T05:57:02.752Z,24.67
2023-02-23T06:02:07.117Z,19.83
2023-02-23T06:07:08.509Z,20.33
2023-02-23T06:12:10.017Z,20.02
2023-02-23T06:17:11.504Z,26.67
2023-02-23T06:22:13.139Z,23.10
2023-02-23T06:27:14.562Z,14.30
2023-02-23T06:32:16.141Z,18.17
2023-02-23T06:37:22.151Z,14.27
2023-02-23T06:42:23.629Z,14.45
2023-02-23T06:47:25.530Z,16.23
2023-02-23T06:52:26.918Z,18.75
2023-02-23T06:57:28.400Z,16.48
2023-02-23T07:02:29.972Z,25.80
2023-02-23T07:07:32.821Z,12.43
2023-02-23T07:12:34.270Z,13.35
2023-02-23T07:17:36.348Z,14.02
2023-02-23T07:22:39.829Z,13.83
2023-02-23T07:27:42.167Z,12.60
2023-02-23T07:32:43.647Z,13.97
2023-02-23T07:37:45.169Z,14.55
2023-02-23T07:42:46.590Z,15.82
2023-02-23T07:47:49.219Z,12.45
2023-02-23T07:52:51.339Z,14.25
2023-02-23T07:57:53.076Z,18.30
2023-02-23T08:02:54.534Z,19.08
2023-02-23T08:07:57.746Z,19.40
2023-02-23T08:12:59.999Z,18.02
2023-02-23T08:18:01.470Z,16.88
2023-02-23T08:23:02.942Z,18.92
2023-02-23T08:28:06.713Z,19.65
2023-02-23T08:33:08.225Z,20.05
2023-02-23T08:38:09.646Z,19.08
2023-02-23T08:43:11.073Z,17.48
2023-02-23T08:48:12.722Z,17.40
2023-02-23T08:53:14.194Z,16.65
2023-02-23T08:58:15.906Z,19.80
2023-02-23T09:03:17.741Z,21.88
2023-02-23T09:08:19.810Z,20.70
2023-02-23T09:13:21.247Z,20.77
2023-02-23T09:18:23.969Z,27.35
2023-02-23T09:23:28.303Z,25.58
2023-02-23T09:28:31.161Z,22.13
2023-02-23T09:33:32.831Z,22.02
2023-02-23T09:38:34.548Z,17.48
2023-02-23T09:43:42.373Z,19.55
2023-02-23T09:48:43.941Z,25.63
2023-02-23T09:53:55.225Z,26.42
2023-02-23T09:58:56.798Z,28.45
2023-02-23T10:04:10.915Z,22.95
2023-02-23T10:09:24.521Z,26.10
2023-02-23T10:14:32.195Z,25.20
2023-02-23T10:20:24.837Z,21.38
2023-02-23T10:25:30.666Z,24.67
2023-02-23T10:30:34.391Z,20.85
2023-02-23T10:35:38.167Z,31.45
2023-02-23T10:40:41.207Z,22.55
2023-02-23T10:45:48.820Z,20.92
2023-02-23T10:50:55.138Z,17.77
2023-02-23T10:56:17.606Z,18.25
2023-02-23T11:01:41.826Z,9.55
2023-02-23T11:06:45.775Z,9.55
2023-02-23T11:12:12.094Z,9.43
2023-02-23T11:17:34.796Z,11.55
2023-02-23T11:22:40.621Z,13.73
2023-02-23T11:27:51.215Z,11.32
2023-02-23T11:32:56.333Z,9.52
2023-02-23T11:37:58.095Z,13.77
2023-02-23T11:43:07.152Z,11.67
2023-02-23T11:48:23.146Z,11.68
2023-02-23T11:53:30.365Z,11.52
2023-02-23T11:58:49.660Z,13.20
2023-02-23T12:03:57.154Z,13.55
2023-02-23T12:09:12.939Z,12.18
2023-02-23T12:14:29.440Z,13.90
2023-02-23T12:19:40.893Z,13.25
2023-02-23T12:24:49.832Z,11.73
2023-02-23T12:29:57.430Z,13.27
2023-02-23T12:35:06.026Z,13.60
2023-02-23T12:40:16.531Z,14.60
2023-02-23T12:45:43.116Z,12.00
2023-02-23T12:50:53.059Z,12.90
2023-02-23T12:56:14.697Z,17.98
2023-02-23T13:01:34.536Z,13.15
2023-02-23T13:06:54.422Z,13.32
2023-02-23T13:12:22.053Z,13.27
2023-02-23T13:17:41.094Z,15.07
2023-02-23T13:22:49.414Z,17.38
2023-02-23T13:28:00.060Z,13.45
2023-02-23T13:33:08.202Z,17.40
2023-02-23T13:38:20.134Z,15.13
2023-02-23T13:43:33.535Z,12.85
2023-02-23T13:49:02.140Z,13.90
2023-02-23T13:54:06.537Z,15.32
2023-02-23T13:59:16.365Z,14.23
2023-02-23T14:04:34.084Z,13.52
2023-02-23T14:09:54.432Z,14.98
2023-02-23T14:14:55.975Z,21.52
2023-02-23T14:20:00.281Z,20.90
2023-02-23T14:25:43.943Z,23.92
2023-02-23T14:30:51.008Z,22.95
2023-02-23T14:35:54.365Z,23.17
2023-02-23T14:40:56.086Z,26.98
2023-02-23T14:45:58.945Z,29.93
2023-02-23T14:51:42.294Z,28.17
2023-02-23T14:56:49.684Z,25.30
2023-02-23T15:01:51.919Z,26.25
2023-02-23T15:06:57.494Z,29.63
2023-02-23T15:12:02.893Z,23.27
2023-02-23T15:17:05.312Z,27.52
2023-02-23T15:22:07.425Z,26.73
2023-02-23T15:27:22.655Z,25.55
2023-02-23T15:32:26.245Z,25.65
2023-02-23T15:37:34.861Z,24.40
2023-02-23T15:42:39.707Z,23.92
2023-02-23T15:47:42.711Z,27.67
2023-02-23T15:52:49.103Z,27.52
2023-02-23T15:57:59.478Z,25.85
2023-02-23T16:03:03.042Z,30.25
2023-02-23T16:08:22.820Z,30.48
2023-02-23T16:13:24.636Z,28.75
2023-02-23T16:18:36.515Z,29.65
2023-02-23T16:23:44.542Z,26.73
2023-02-23T16:28:46.670Z,28.48
2023-02-23T16:33:56.707Z,31.58
2023-02-23T16:39:01.598Z,30.83
2023-02-23T16:44:06.000Z,33.65
2023-02-23T16:49:12.085Z,31.02
2023-02-23T16:54:13.550Z,31.08
2023-02-23T16:59:17.681Z,31.80
2023-02-23T17:04:20.789Z,28.00
2023-02-23T17:09:22.281Z,33.47
2023-02-23T17:14:27.987Z,30.08
2023-02-23T17:19:29.492Z,31.80
2023-02-23T17:24:30.925Z,29.65
2023-02-23T17:29:32.554Z,28.40
2023-02-23T17:34:34.146Z,33.97
2023-02-23T17:39:37.324Z,41.13
2023-02-23T17:44:39.078Z,43.28
2023-02-23T17:49:40.503Z,41.67
2023-02-23T17:54:41.925Z,42.55
2023-02-23T17:59:43.638Z,44.83
2023-02-23T18:04:45.322Z,43.88
2023-02-23T18:09:49.928Z,44.53
2023-02-23T18:14:51.517Z,34.13
2023-02-23T18:19:53.068Z,44.40
2023-02-23T18:24:56.141Z,42.47
2023-02-23T18:29:58.707Z,48.47
2023-02-23T18:35:00.150Z,42.78
2023-02-23T18:40:01.609Z,47.08
2023-02-23T18:45:03.594Z,46.05
2023-02-23T18:50:05.533Z,51.73
2023-02-23T18:55:08.769Z,53.87
2023-02-23T19:00:14.772Z,55.15
2023-02-23T19:05:18.486Z,47.90
2023-02-23T19:10:21.625Z,44.75
2023-02-23T19:15:23.229Z,44.38
2023-02-23T19:20:27.005Z,42.85
2023-02-23T19:25:28.872Z,38.80
2023-02-23T19:30:30.333Z,34.13
2023-02-23T19:35:31.888Z,48.30
2023-02-23T19:40:36.797Z,52.97
2023-02-23T19:45:46.013Z,55.25
2023-02-23T19:50:49.600Z,61.20
2023-02-23T19:56:02.103Z,51.97
2023-02-23T20:01:08.758Z,46.22
2023-02-23T20:06:15.642Z,40.58
2023-02-23T20:11:17.160Z,43.20
2023-02-23T20:16:19.491Z,43.47
2023-02-23T20:21:24.862Z,43.92
2023-02-23T20:26:30.512Z,45.17
2023-02-23T20:31:35.422Z,43.03
2023-02-23T20:36:37.216Z,40.50
2023-02-23T20:41:43.918Z,40.13
2023-02-23T20:46:45.472Z,42.88
2023-02-23T20:51:48.467Z,51.25
2023-02-23T20:56:58.889Z,46.40
2023-02-23T21:02:01.531Z,53.60
2023-02-23T21:07:07.774Z,51.75
2023-02-23T21:12:10.325Z,46.35
2023-02-23T21:17:12.096Z,50.28
2023-02-23T21:22:16.316Z,48.58
2023-02-23T21:27:17.816Z,55.10
2023-02-23T21:32:19.747Z,60.83
2023-02-23T21:37:21.536Z,57.33
2023-02-23T21:42:24.079Z,57.13
2023-02-23T21:47:25.777Z,97.63
2023-02-23T21:52:27.450Z,134.88
2023-02-23T21:57:33.393Z,166.38
2023-02-23T22:02:37.482Z,179.30
2023-02-23T22:07:39.281Z,227.32
2023-02-23T22:12:40.734Z,234.38
2023-02-23T22:17:43.452Z,136.25
2023-02-23T22:22:46.126Z,160.88
2023-02-23T22:27:47.864Z,153.82
2023-02-23T22:32:49.653Z,189.65
2023-02-23T22:37:51.178Z,197.07
2023-02-23T22:42:54.475Z,151.10
2023-02-23T22:48:01.306Z,115.00
2023-02-23T22:53:03.609Z,133.07
2023-02-23T22:58:08.895Z,128.65
2023-02-23T23:03:10.317Z,138.30
2023-02-23T23:08:13.348Z,151.57
2023-02-23T23:13:14.783Z,198.65
2023-02-23T23:18:20.623Z,198.98
2023-02-23T23:23:25.908Z,206.63
2023-02-23T23:28:28.474Z,208.73
2023-02-23T23:33:30.455Z,250.35
2023-02-23T23:38:32.815Z,268.05
2023-02-23T23:43:36.848Z,271.02
2023-02-23T23:48:39.162Z,301.75
2023-02-23T23:53:40.560Z,267.63
2023-02-23T23:58:41.950Z,187.85
